sensor_id;sensor_type;location;lat;lon;timestamp;P1;durP1;ratioP1;P2;durP2;ratioP2
25023;SDS011;13033;50.936;5.334;2023-02-15T00:01:20;63.38;;;32.70;;
25023;SDS011;13033;50.936;5.334;2023-02-15T00:03:49;59.58;;;29.73;;
25023;SDS011;13033;50.936;5.334;2023-02-15T00:06:15;63.17;;;32.47;;
25023;SDS011;13033;50.936;5.334;2023-02-15T00:08:41;69.53;;;34.10;;
25023;SDS011;13033;50.936;5.334;2023-02-15T00:11:07;65.72;;;32.75;;
25023;SDS011;13033;50.936;5.334;2023-02-15T00:13:38;66.35;;;31.80;;
25023;SDS011;13033;50.936;5.334;2023-02-15T00:16:08;63.03;;;32.40;;
25023;SDS011;13033;50.936;5.334;2023-02-15T00:18:36;61.05;;;32.35;;
25023;SDS011;13033;50.936;5.334;2023-02-15T00:21:06;61.10;;;31.58;;
25023;SDS011;13033;50.936;5.334;2023-02-15T00:26:06;61.80;;;32.17;;
25023;SDS011;13033;50.936;5.334;2023-02-15T00:28:35;63.55;;;31.40;;
25023;SDS011;13033;50.936;5.334;2023-02-15T00:31:10;61.42;;;31.67;;
25023;SDS011;13033;50.936;5.334;2023-02-15T00:33:37;67.90;;;31.88;;
25023;SDS011;13033;50.936;5.334;2023-02-15T00:36:04;65.13;;;32.33;;
25023;SDS011;13033;50.936;5.334;2023-02-15T00:38:31;62.33;;;31.05;;
25023;SDS011;13033;50.936;5.334;2023-02-15T00:40:58;63.58;;;31.63;;
25023;SDS011;13033;50.936;5.334;2023-02-15T00:43:25;61.30;;;30.00;;
25023;SDS011;13033;50.936;5.334;2023-02-15T00:45:52;59.90;;;31.92;;
25023;SDS011;13033;50.936;5.334;2023-02-15T00:48:18;56.80;;;31.30;;
25023;SDS011;13033;50.936;5.334;2023-02-15T00:50:54;62.47;;;29.67;;
25023;SDS011;13033;50.936;5.334;2023-02-15T00:53:22;55.28;;;29.30;;
25023;SDS011;13033;50.936;5.334;2023-02-15T00:55:48;60.55;;;30.83;;
25023;SDS011;13033;50.936;5.334;2023-02-15T00:58:14;60.60;;;30.45;;
25023;SDS011;13033;50.936;5.334;2023-02-15T01:00:41;63.13;;;31.48;;
25023;SDS011;13033;50.936;5.334;2023-02-15T01:03:09;67.10;;;32.72;;
25023;SDS011;13033;50.936;5.334;2023-02-15T01:05:36;58.92;;;31.30;;
25023;SDS011;13033;50.936;5.334;2023-02-15T01:08:02;59.70;;;29.90;;
25023;SDS011;13033;50.936;5.334;2023-02-15T01:10:27;60.97;;;29.70;;
25023;SDS011;13033;50.936;5.334;2023-02-15T01:12:54;57.60;;;30.00;;
25023;SDS011;13033;50.936;5.334;2023-02-15T01:15:21;57.25;;;29.85;;
25023;SDS011;13033;50.936;5.334;2023-02-15T01:17:47;56.25;;;30.63;;
25023;SDS011;13033;50.936;5.334;2023-02-15T01:20:18;61.22;;;30.25;;
25023;SDS011;13033;50.936;5.334;2023-02-15T01:22:45;53.53;;;29.38;;
25023;SDS011;13033;50.936;5.334;2023-02-15T01:25:11;56.13;;;30.48;;
25023;SDS011;13033;50.936;5.334;2023-02-15T01:27:37;62.85;;;30.40;;
25023;SDS011;13033;50.936;5.334;2023-02-15T01:30:03;59.97;;;31.65;;
25023;SDS011;13033;50.936;5.334;2023-02-15T01:32:29;56.65;;;31.80;;
25023;SDS011;13033;50.936;5.334;2023-02-15T01:34:56;59.53;;;32.05;;
25023;SDS011;13033;50.936;5.334;2023-02-15T01:37:21;61.40;;;33.13;;
25023;SDS011;13033;50.936;5.334;2023-02-15T01:39:47;66.32;;;31.45;;
25023;SDS011;13033;50.936;5.334;2023-02-15T01:42:13;60.63;;;32.67;;
25023;SDS011;13033;50.936;5.334;2023-02-15T01:44:49;62.00;;;31.08;;
25023;SDS011;13033;50.936;5.334;2023-02-15T01:50:12;63.83;;;31.20;;
25023;SDS011;13033;50.936;5.334;2023-02-15T01:55:29;57.90;;;30.90;;
25023;SDS011;13033;50.936;5.334;2023-02-15T01:57:59;55.47;;;30.88;;
25023;SDS011;13033;50.936;5.334;2023-02-15T02:00:25;55.78;;;29.98;;
25023;SDS011;13033;50.936;5.334;2023-02-15T02:02:52;60.65;;;30.58;;
25023;SDS011;13033;50.936;5.334;2023-02-15T02:05:20;53.78;;;28.77;;
25023;SDS011;13033;50.936;5.334;2023-02-15T02:07:46;56.65;;;30.70;;
25023;SDS011;13033;50.936;5.334;2023-02-15T02:10:14;63.42;;;31.23;;
25023;SDS011;13033;50.936;5.334;2023-02-15T02:12:42;55.13;;;30.17;;
25023;SDS011;13033;50.936;5.334;2023-02-15T02:15:10;62.15;;;31.65;;
25023;SDS011;13033;50.936;5.334;2023-02-15T02:17:42;58.83;;;31.63;;
25023;SDS011;13033;50.936;5.334;2023-02-15T02:20:16;62.13;;;30.63;;
25023;SDS011;13033;50.936;5.334;2023-02-15T02:23:26;60.95;;;31.58;;
25023;SDS011;13033;50.936;5.334;2023-02-15T02:37:28;56.67;;;30.98;;
25023;SDS011;13033;50.936;5.334;2023-02-15T02:42:40;62.88;;;31.40;;
25023;SDS011;13033;50.936;5.334;2023-02-15T02:45:31;58.00;;;31.60;;
25023;SDS011;13033;50.936;5.334;2023-02-15T02:48:05;63.70;;;32.17;;
25023;SDS011;13033;50.936;5.334;2023-02-15T02:50:38;62.35;;;31.67;;
25023;SDS011;13033;50.936;5.334;2023-02-15T02:53:04;63.08;;;32.78;;
25023;SDS011;13033;50.936;5.334;2023-02-15T02:58:13;69.70;;;31.52;;
25023;SDS011;13033;50.936;5.334;2023-02-15T03:01:03;57.05;;;29.80;;
25023;SDS011;13033;50.936;5.334;2023-02-15T03:03:40;60.75;;;31.38;;
25023;SDS011;13033;50.936;5.334;2023-02-15T03:06:36;59.50;;;31.40;;
25023;SDS011;13033;50.936;5.334;2023-02-15T03:09:12;57.17;;;30.50;;
25023;SDS011;13033;50.936;5.334;2023-02-15T03:11:45;64.63;;;32.40;;
25023;SDS011;13033;50.936;5.334;2023-02-15T03:14:13;62.20;;;31.58;;
25023;SDS011;13033;50.936;5.334;2023-02-15T03:16:41;63.40;;;31.05;;
25023;SDS011;13033;50.936;5.334;2023-02-15T03:19:12;63.92;;;30.90;;
25023;SDS011;13033;50.936;5.334;2023-02-15T03:21:51;56.78;;;30.20;;
25023;SDS011;13033;50.936;5.334;2023-02-15T03:24:36;59.72;;;30.75;;
25023;SDS011;13033;50.936;5.334;2023-02-15T03:27:15;56.03;;;31.30;;
25023;SDS011;13033;50.936;5.334;2023-02-15T03:29:50;58.45;;;31.65;;
25023;SDS011;13033;50.936;5.334;2023-02-15T03:32:18;64.35;;;31.88;;
25023;SDS011;13033;50.936;5.334;2023-02-15T03:34:44;61.15;;;31.92;;
25023;SDS011;13033;50.936;5.334;2023-02-15T03:37:16;60.13;;;30.77;;
25023;SDS011;13033;50.936;5.334;2023-02-15T03:39:54;59.03;;;31.42;;
25023;SDS011;13033;50.936;5.334;2023-02-15T03:42:45;59.47;;;30.90;;
25023;SDS011;13033;50.936;5.334;2023-02-15T03:45:17;61.65;;;30.52;;
25023;SDS011;13033;50.936;5.334;2023-02-15T03:47:47;66.63;;;32.90;;
25023;SDS011;13033;50.936;5.334;2023-02-15T03:53:03;65.25;;;31.98;;
25023;SDS011;13033;50.936;5.334;2023-02-15T03:55:33;62.33;;;31.95;;
25023;SDS011;13033;50.936;5.334;2023-02-15T03:57:59;63.17;;;32.15;;
25023;SDS011;13033;50.936;5.334;2023-02-15T04:00:46;64.38;;;32.85;;
25023;SDS011;13033;50.936;5.334;2023-02-15T04:03:45;61.63;;;31.30;;
25023;SDS011;13033;50.936;5.334;2023-02-15T04:06:33;60.95;;;31.95;;
25023;SDS011;13033;50.936;5.334;2023-02-15T04:08:58;58.72;;;30.50;;
25023;SDS011;13033;50.936;5.334;2023-02-15T04:11:43;60.20;;;31.73;;
25023;SDS011;13033;50.936;5.334;2023-02-15T04:14:08;58.97;;;30.60;;
25023;SDS011;13033;50.936;5.334;2023-02-15T04:16:52;62.15;;;31.33;;
25023;SDS011;13033;50.936;5.334;2023-02-15T04:19:18;63.70;;;31.17;;
25023;SDS011;13033;50.936;5.334;2023-02-15T04:22:02;57.00;;;29.80;;
25023;SDS011;13033;50.936;5.334;2023-02-15T04:24:46;58.65;;;31.38;;
25023;SDS011;13033;50.936;5.334;2023-02-15T04:27:30;62.92;;;31.02;;
25023;SDS011;13033;50.936;5.334;2023-02-15T04:29:56;55.72;;;29.23;;
25023;SDS011;13033;50.936;5.334;2023-02-15T04:32:21;60.63;;;30.52;;
25023;SDS011;13033;50.936;5.334;2023-02-15T04:34:47;58.22;;;30.73;;
25023;SDS011;13033;50.936;5.334;2023-02-15T04:37:13;61.70;;;31.52;;
25023;SDS011;13033;50.936;5.334;2023-02-15T04:39:38;57.83;;;30.27;;
25023;SDS011;13033;50.936;5.334;2023-02-15T04:42:04;57.38;;;29.65;;
25023;SDS011;13033;50.936;5.334;2023-02-15T04:44:30;56.30;;;29.33;;
25023;SDS011;13033;50.936;5.334;2023-02-15T04:46:55;57.97;;;30.70;;
25023;SDS011;13033;50.936;5.334;2023-02-15T04:49:21;54.38;;;29.90;;
25023;SDS011;13033;50.936;5.334;2023-02-15T04:51:46;59.47;;;29.42;;
25023;SDS011;13033;50.936;5.334;2023-02-15T04:54:12;58.63;;;31.02;;
25023;SDS011;13033;50.936;5.334;2023-02-15T04:56:38;60.08;;;30.50;;
25023;SDS011;13033;50.936;5.334;2023-02-15T04:59:04;57.10;;;29.77;;
25023;SDS011;13033;50.936;5.334;2023-02-15T05:01:30;59.38;;;30.65;;
25023;SDS011;13033;50.936;5.334;2023-02-15T05:03:56;58.78;;;30.02;;
25023;SDS011;13033;50.936;5.334;2023-02-15T05:06:22;57.50;;;29.40;;
25023;SDS011;13033;50.936;5.334;2023-02-15T05:08:47;55.78;;;30.40;;
25023;SDS011;13033;50.936;5.334;2023-02-15T05:11:13;58.55;;;29.67;;
25023;SDS011;13033;50.936;5.334;2023-02-15T05:13:39;59.20;;;30.30;;
25023;SDS011;13033;50.936;5.334;2023-02-15T05:16:04;60.50;;;29.95;;
25023;SDS011;13033;50.936;5.334;2023-02-15T05:18:30;56.08;;;29.17;;
25023;SDS011;13033;50.936;5.334;2023-02-15T05:20:56;64.90;;;29.95;;
25023;SDS011;13033;50.936;5.334;2023-02-15T05:23:21;55.40;;;29.08;;
25023;SDS011;13033;50.936;5.334;2023-02-15T05:25:48;58.35;;;29.83;;
25023;SDS011;13033;50.936;5.334;2023-02-15T05:28:33;55.33;;;28.85;;
25023;SDS011;13033;50.936;5.334;2023-02-15T05:33:27;55.30;;;28.08;;
25023;SDS011;13033;50.936;5.334;2023-02-15T05:35:53;59.85;;;29.08;;
25023;SDS011;13033;50.936;5.334;2023-02-15T05:38:18;56.10;;;28.98;;
25023;SDS011;13033;50.936;5.334;2023-02-15T05:40:44;50.45;;;27.92;;
25023;SDS011;13033;50.936;5.334;2023-02-15T05:43:10;52.78;;;28.65;;
25023;SDS011;13033;50.936;5.334;2023-02-15T05:45:35;57.05;;;30.20;;
25023;SDS011;13033;50.936;5.334;2023-02-15T05:48:01;61.58;;;30.50;;
25023;SDS011;13033;50.936;5.334;2023-02-15T05:50:27;62.72;;;32.38;;
25023;SDS011;13033;50.936;5.334;2023-02-15T05:52:52;61.08;;;31.08;;
25023;SDS011;13033;50.936;5.334;2023-02-15T05:55:18;58.65;;;30.30;;
25023;SDS011;13033;50.936;5.334;2023-02-15T05:57:44;57.60;;;30.90;;
25023;SDS011;13033;50.936;5.334;2023-02-15T06:00:10;58.33;;;29.88;;
25023;SDS011;13033;50.936;5.334;2023-02-15T06:02:37;59.88;;;31.40;;
25023;SDS011;13033;50.936;5.334;2023-02-15T06:05:03;60.25;;;31.30;;
25023;SDS011;13033;50.936;5.334;2023-02-15T06:07:30;56.95;;;30.48;;
25023;SDS011;13033;50.936;5.334;2023-02-15T06:09:55;62.38;;;30.95;;
25023;SDS011;13033;50.936;5.334;2023-02-15T06:12:21;62.40;;;31.10;;
25023;SDS011;13033;50.936;5.334;2023-02-15T06:14:47;62.35;;;31.88;;
25023;SDS011;13033;50.936;5.334;2023-02-15T06:17:12;60.63;;;31.70;;
25023;SDS011;13033;50.936;5.334;2023-02-15T06:19:38;62.75;;;30.95;;
25023;SDS011;13033;50.936;5.334;2023-02-15T06:22:04;59.20;;;29.88;;
25023;SDS011;13033;50.936;5.334;2023-02-15T06:24:31;64.22;;;31.23;;
25023;SDS011;13033;50.936;5.334;2023-02-15T06:26:57;66.25;;;31.63;;
25023;SDS011;13033;50.936;5.334;2023-02-15T06:29:23;63.40;;;32.72;;
25023;SDS011;13033;50.936;5.334;2023-02-15T06:31:48;63.53;;;31.10;;
25023;SDS011;13033;50.936;5.334;2023-02-15T06:34:14;63.60;;;31.35;;
25023;SDS011;13033;50.936;5.334;2023-02-15T06:36:40;65.97;;;32.30;;
25023;SDS011;13033;50.936;5.334;2023-02-15T06:39:06;63.53;;;31.05;;
25023;SDS011;13033;50.936;5.334;2023-02-15T06:41:32;61.92;;;31.85;;
25023;SDS011;13033;50.936;5.334;2023-02-15T06:43:57;62.75;;;31.23;;
25023;SDS011;13033;50.936;5.334;2023-02-15T06:46:23;60.47;;;31.05;;
25023;SDS011;13033;50.936;5.334;2023-02-15T06:48:49;60.38;;;32.45;;
25023;SDS011;13033;50.936;5.334;2023-02-15T06:51:14;70.85;;;33.25;;
25023;SDS011;13033;50.936;5.334;2023-02-15T06:53:40;64.13;;;31.33;;
25023;SDS011;13033;50.936;5.334;2023-02-15T06:56:07;61.75;;;31.00;;
25023;SDS011;13033;50.936;5.334;2023-02-15T06:58:37;61.80;;;32.45;;
25023;SDS011;13033;50.936;5.334;2023-02-15T07:01:06;62.40;;;31.77;;
25023;SDS011;13033;50.936;5.334;2023-02-15T07:03:33;58.40;;;31.02;;
25023;SDS011;13033;50.936;5.334;2023-02-15T07:06:00;63.15;;;31.77;;
25023;SDS011;13033;50.936;5.334;2023-02-15T07:08:28;64.30;;;31.58;;
25023;SDS011;13033;50.936;5.334;2023-02-15T07:10:54;64.25;;;31.08;;
25023;SDS011;13033;50.936;5.334;2023-02-15T07:13:41;60.45;;;31.08;;
25023;SDS011;13033;50.936;5.334;2023-02-15T07:16:07;63.95;;;33.33;;
25023;SDS011;13033;50.936;5.334;2023-02-15T07:18:34;64.35;;;32.50;;
25023;SDS011;13033;50.936;5.334;2023-02-15T07:21:05;67.47;;;32.60;;
25023;SDS011;13033;50.936;5.334;2023-02-15T07:23:35;69.45;;;32.17;;
25023;SDS011;13033;50.936;5.334;2023-02-15T07:26:02;60.72;;;31.27;;
25023;SDS011;13033;50.936;5.334;2023-02-15T07:28:29;69.53;;;32.78;;
25023;SDS011;13033;50.936;5.334;2023-02-15T07:30:55;70.07;;;32.22;;
25023;SDS011;13033;50.936;5.334;2023-02-15T07:33:22;62.47;;;32.50;;
25023;SDS011;13033;50.936;5.334;2023-02-15T07:35:48;68.32;;;31.60;;
25023;SDS011;13033;50.936;5.334;2023-02-15T07:38:27;67.13;;;31.95;;
25023;SDS011;13033;50.936;5.334;2023-02-15T07:40:59;67.32;;;32.85;;
25023;SDS011;13033;50.936;5.334;2023-02-15T07:43:25;71.55;;;32.20;;
25023;SDS011;13033;50.936;5.334;2023-02-15T07:45:52;66.18;;;32.25;;
25023;SDS011;13033;50.936;5.334;2023-02-15T07:48:17;70.80;;;32.08;;
25023;SDS011;13033;50.936;5.334;2023-02-15T07:50:43;68.82;;;33.22;;
25023;SDS011;13033;50.936;5.334;2023-02-15T07:53:08;63.45;;;32.83;;
25023;SDS011;13033;50.936;5.334;2023-02-15T07:55:34;68.97;;;32.42;;
25023;SDS011;13033;50.936;5.334;2023-02-15T07:58:00;63.58;;;31.08;;
25023;SDS011;13033;50.936;5.334;2023-02-15T08:00:25;62.38;;;31.55;;
25023;SDS011;13033;50.936;5.334;2023-02-15T08:02:52;72.72;;;33.95;;
25023;SDS011;13033;50.936;5.334;2023-02-15T08:05:39;64.20;;;32.20;;
25023;SDS011;13033;50.936;5.334;2023-02-15T08:08:09;64.40;;;32.22;;
25023;SDS011;13033;50.936;5.334;2023-02-15T08:10:59;64.43;;;30.58;;
25023;SDS011;13033;50.936;5.334;2023-02-15T08:13:54;65.45;;;32.05;;
25023;SDS011;13033;50.936;5.334;2023-02-15T08:16:23;68.55;;;34.05;;
25023;SDS011;13033;50.936;5.334;2023-02-15T08:18:51;65.25;;;32.33;;
25023;SDS011;13033;50.936;5.334;2023-02-15T08:21:18;63.72;;;32.95;;
25023;SDS011;13033;50.936;5.334;2023-02-15T08:23:45;68.13;;;31.63;;
25023;SDS011;13033;50.936;5.334;2023-02-15T08:26:11;65.40;;;32.33;;
25023;SDS011;13033;50.936;5.334;2023-02-15T08:28:42;65.60;;;31.58;;
25023;SDS011;13033;50.936;5.334;2023-02-15T08:31:08;63.38;;;31.35;;
25023;SDS011;13033;50.936;5.334;2023-02-15T08:33:36;60.40;;;30.98;;
25023;SDS011;13033;50.936;5.334;2023-02-15T08:36:04;64.25;;;31.73;;
25023;SDS011;13033;50.936;5.334;2023-02-15T08:38:31;59.85;;;30.42;;
25023;SDS011;13033;50.936;5.334;2023-02-15T08:40:57;60.38;;;30.95;;
25023;SDS011;13033;50.936;5.334;2023-02-15T08:43:33;68.97;;;30.38;;
25023;SDS011;13033;50.936;5.334;2023-02-15T08:45:59;61.08;;;30.40;;
25023;SDS011;13033;50.936;5.334;2023-02-15T08:48:24;69.88;;;31.92;;
25023;SDS011;13033;50.936;5.334;2023-02-15T08:50:50;57.70;;;31.15;;
25023;SDS011;13033;50.936;5.334;2023-02-15T08:53:16;62.20;;;30.90;;
25023;SDS011;13033;50.936;5.334;2023-02-15T08:55:45;66.38;;;31.38;;
25023;SDS011;13033;50.936;5.334;2023-02-15T08:58:10;62.00;;;32.30;;
25023;SDS011;13033;50.936;5.334;2023-02-15T09:00:37;69.15;;;32.88;;
25023;SDS011;13033;50.936;5.334;2023-02-15T09:03:03;63.72;;;32.03;;
25023;SDS011;13033;50.936;5.334;2023-02-15T09:05:28;65.30;;;32.03;;
25023;SDS011;13033;50.936;5.334;2023-02-15T09:07:54;66.88;;;31.33;;
25023;SDS011;13033;50.936;5.334;2023-02-15T09:10:20;67.07;;;32.42;;
25023;SDS011;13033;50.936;5.334;2023-02-15T09:12:45;60.42;;;31.67;;
25023;SDS011;13033;50.936;5.334;2023-02-15T09:15:11;64.60;;;30.73;;
25023;SDS011;13033;50.936;5.334;2023-02-15T09:17:36;60.28;;;31.35;;
25023;SDS011;13033;50.936;5.334;2023-02-15T09:20:02;51.67;;;31.17;;
25023;SDS011;13033;50.936;5.334;2023-02-15T09:22:28;60.97;;;31.95;;
25023;SDS011;13033;50.936;5.334;2023-02-15T09:24:56;62.65;;;31.33;;
25023;SDS011;13033;50.936;5.334;2023-02-15T09:27:21;59.00;;;30.60;;
25023;SDS011;13033;50.936;5.334;2023-02-15T09:29:47;65.07;;;30.27;;
25023;SDS011;13033;50.936;5.334;2023-02-15T09:32:15;61.85;;;28.77;;
25023;SDS011;13033;50.936;5.334;2023-02-15T09:34:42;50.05;;;27.40;;
25023;SDS011;13033;50.936;5.334;2023-02-15T09:37:08;47.00;;;26.30;;
25023;SDS011;13033;50.936;5.334;2023-02-15T09:39:33;53.88;;;27.90;;
25023;SDS011;13033;50.936;5.334;2023-02-15T10:03:41;40.22;;;21.38;;
25023;SDS011;13033;50.936;5.334;2023-02-15T10:06:35;36.80;;;21.27;;
25023;SDS011;13033;50.936;5.334;2023-02-15T10:15:10;38.95;;;20.85;;
25023;SDS011;13033;50.936;5.334;2023-02-15T10:20:52;38.47;;;20.10;;
25023;SDS011;13033;50.936;5.334;2023-02-15T10:23:34;33.90;;;20.05;;
25023;SDS011;13033;50.936;5.334;2023-02-15T10:26:14;38.17;;;20.27;;
25023;SDS011;13033;50.936;5.334;2023-02-15T10:32:04;43.70;;;20.50;;
25023;SDS011;13033;50.936;5.334;2023-02-15T10:34:49;39.10;;;20.77;;
25023;SDS011;13033;50.936;5.334;2023-02-15T10:40:08;39.55;;;21.25;;
25023;SDS011;13033;50.936;5.334;2023-02-15T10:46:45;39.67;;;22.10;;
25023;SDS011;13033;50.936;5.334;2023-02-15T10:55:02;36.73;;;22.07;;
25023;SDS011;13033;50.936;5.334;2023-02-15T11:01:05;37.38;;;20.95;;
25023;SDS011;13033;50.936;5.334;2023-02-15T11:06:04;38.42;;;20.85;;
25023;SDS011;13033;50.936;5.334;2023-02-15T11:08:38;35.80;;;19.83;;
25023;SDS011;13033;50.936;5.334;2023-02-15T11:11:09;42.03;;;21.92;;
25023;SDS011;13033;50.936;5.334;2023-02-15T11:14:20;42.92;;;20.98;;
25023;SDS011;13033;50.936;5.334;2023-02-15T11:17:02;45.45;;;21.10;;
25023;SDS011;13033;50.936;5.334;2023-02-15T11:19:43;36.83;;;21.23;;
25023;SDS011;13033;50.936;5.334;2023-02-15T11:22:18;34.53;;;19.77;;
25023;SDS011;13033;50.936;5.334;2023-02-15T11:24:44;34.88;;;19.88;;
25023;SDS011;13033;50.936;5.334;2023-02-15T11:30:01;35.25;;;18.40;;
25023;SDS011;13033;50.936;5.334;2023-02-15T11:32:29;38.88;;;20.83;;
25023;SDS011;13033;50.936;5.334;2023-02-15T11:37:46;33.70;;;19.25;;
25023;SDS011;13033;50.936;5.334;2023-02-15T11:40:19;35.78;;;19.85;;
25023;SDS011;13033;50.936;5.334;2023-02-15T11:42:57;36.75;;;18.55;;
25023;SDS011;13033;50.936;5.334;2023-02-15T11:45:30;34.28;;;19.00;;
25023;SDS011;13033;50.936;5.334;2023-02-15T11:50:26;35.45;;;19.33;;
25023;SDS011;13033;50.936;5.334;2023-02-15T11:52:58;37.10;;;19.63;;
25023;SDS011;13033;50.936;5.334;2023-02-15T11:55:30;35.63;;;20.10;;
25023;SDS011;13033;50.936;5.334;2023-02-15T11:58:02;39.63;;;19.88;;
25023;SDS011;13033;50.936;5.334;2023-02-15T12:00:47;35.95;;;19.30;;
25023;SDS011;13033;50.936;5.334;2023-02-15T12:03:18;35.42;;;20.00;;
25023;SDS011;13033;50.936;5.334;2023-02-15T12:06:02;37.33;;;20.48;;
25023;SDS011;13033;50.936;5.334;2023-02-15T12:08:40;36.42;;;19.52;;
25023;SDS011;13033;50.936;5.334;2023-02-15T12:11:18;36.90;;;20.35;;
25023;SDS011;13033;50.936;5.334;2023-02-15T12:14:02;34.10;;;19.48;;
25023;SDS011;13033;50.936;5.334;2023-02-15T12:16:32;34.28;;;20.17;;
25023;SDS011;13033;50.936;5.334;2023-02-15T12:21:57;33.95;;;19.40;;
25023;SDS011;13033;50.936;5.334;2023-02-15T12:24:27;38.67;;;21.15;;
25023;SDS011;13033;50.936;5.334;2023-02-15T12:27:05;37.10;;;19.63;;
25023;SDS011;13033;50.936;5.334;2023-02-15T12:29:41;34.55;;;18.17;;
25023;SDS011;13033;50.936;5.334;2023-02-15T12:34:56;32.90;;;18.33;;
25023;SDS011;13033;50.936;5.334;2023-02-15T12:37:27;33.33;;;18.90;;
25023;SDS011;13033;50.936;5.334;2023-02-15T12:40:00;36.15;;;19.25;;
25023;SDS011;13033;50.936;5.334;2023-02-15T12:42:44;35.47;;;20.08;;
25023;SDS011;13033;50.936;5.334;2023-02-15T12:45:29;36.45;;;20.35;;
25023;SDS011;13033;50.936;5.334;2023-02-15T12:48:12;33.03;;;20.13;;
25023;SDS011;13033;50.936;5.334;2023-02-15T12:50:44;35.88;;;20.73;;
25023;SDS011;13033;50.936;5.334;2023-02-15T12:53:20;33.97;;;20.00;;
25023;SDS011;13033;50.936;5.334;2023-02-15T12:58:25;35.63;;;20.95;;
25023;SDS011;13033;50.936;5.334;2023-02-15T13:01:09;36.33;;;21.60;;
25023;SDS011;13033;50.936;5.334;2023-02-15T13:03:38;37.20;;;21.85;;
25023;SDS011;13033;50.936;5.334;2023-02-15T13:06:23;38.67;;;20.67;;
25023;SDS011;13033;50.936;5.334;2023-02-15T13:08:56;33.40;;;19.17;;
25023;SDS011;13033;50.936;5.334;2023-02-15T13:11:30;37.75;;;20.42;;
25023;SDS011;13033;50.936;5.334;2023-02-15T13:14:03;35.65;;;20.02;;
25023;SDS011;13033;50.936;5.334;2023-02-15T13:16:42;36.00;;;20.30;;
25023;SDS011;13033;50.936;5.334;2023-02-15T13:19:22;34.25;;;20.05;;
25023;SDS011;13033;50.936;5.334;2023-02-15T13:21:52;39.08;;;20.85;;
25023;SDS011;13033;50.936;5.334;2023-02-15T13:27:03;35.95;;;20.00;;
25023;SDS011;13033;50.936;5.334;2023-02-15T13:29:30;40.38;;;20.50;;
25023;SDS011;13033;50.936;5.334;2023-02-15T13:32:01;35.17;;;20.20;;
25023;SDS011;13033;50.936;5.334;2023-02-15T13:34:36;38.30;;;21.80;;
25023;SDS011;13033;50.936;5.334;2023-02-15T13:39:49;36.80;;;20.85;;
25023;SDS011;13033;50.936;5.334;2023-02-15T13:42:41;37.25;;;20.95;;
25023;SDS011;13033;50.936;5.334;2023-02-15T14:04:41;34.72;;;20.55;;
25023;SDS011;13033;50.936;5.334;2023-02-15T14:07:33;37.60;;;20.20;;
25023;SDS011;13033;50.936;5.334;2023-02-15T14:10:31;36.83;;;21.02;;
25023;SDS011;13033;50.936;5.334;2023-02-15T14:18:44;35.28;;;20.77;;
25023;SDS011;13033;50.936;5.334;2023-02-15T14:32:09;36.85;;;21.90;;
25023;SDS011;13033;50.936;5.334;2023-02-15T14:34:45;37.20;;;22.42;;
25023;SDS011;13033;50.936;5.334;2023-02-15T14:37:17;37.03;;;21.42;;
25023;SDS011;13033;50.936;5.334;2023-02-15T14:42:56;36.83;;;21.90;;
25023;SDS011;13033;50.936;5.334;2023-02-15T14:45:36;38.30;;;22.38;;
25023;SDS011;13033;50.936;5.334;2023-02-15T14:54:08;40.67;;;22.48;;
25023;SDS011;13033;50.936;5.334;2023-02-15T14:56:34;38.83;;;21.77;;
25023;SDS011;13033;50.936;5.334;2023-02-15T14:59:21;37.30;;;22.23;;
25023;SDS011;13033;50.936;5.334;2023-02-15T15:01:57;39.42;;;24.10;;
25023;SDS011;13033;50.936;5.334;2023-02-15T15:04:29;36.97;;;23.20;;
25023;SDS011;13033;50.936;5.334;2023-02-15T15:09:37;40.70;;;22.85;;
25023;SDS011;13033;50.936;5.334;2023-02-15T15:14:46;40.10;;;24.33;;
25023;SDS011;13033;50.936;5.334;2023-02-15T15:19:58;39.03;;;23.58;;
25023;SDS011;13033;50.936;5.334;2023-02-15T15:22:26;38.03;;;22.05;;
25023;SDS011;13033;50.936;5.334;2023-02-15T15:25:03;36.53;;;23.67;;
25023;SDS011;13033;50.936;5.334;2023-02-15T15:32:58;50.10;;;25.40;;
25023;SDS011;13033;50.936;5.334;2023-02-15T15:41:18;43.60;;;25.38;;
25023;SDS011;13033;50.936;5.334;2023-02-15T15:49:24;46.55;;;26.35;;
25023;SDS011;13033;50.936;5.334;2023-02-15T15:51:56;43.03;;;25.60;;
25023;SDS011;13033;50.936;5.334;2023-02-15T15:54:33;48.47;;;27.13;;
25023;SDS011;13033;50.936;5.334;2023-02-15T15:57:03;47.17;;;25.42;;
25023;SDS011;13033;50.936;5.334;2023-02-15T15:59:30;46.83;;;26.10;;
25023;SDS011;13033;50.936;5.334;2023-02-15T16:02:05;44.70;;;25.92;;
25023;SDS011;13033;50.936;5.334;2023-02-15T16:04:33;45.25;;;26.65;;
25023;SDS011;13033;50.936;5.334;2023-02-15T16:09:57;46.75;;;26.00;;
25023;SDS011;13033;50.936;5.334;2023-02-15T16:12:23;48.53;;;26.65;;
25023;SDS011;13033;50.936;5.334;2023-02-15T16:14:52;48.08;;;28.20;;
25023;SDS011;13033;50.936;5.334;2023-02-15T16:17:23;53.45;;;28.27;;
25023;SDS011;13033;50.936;5.334;2023-02-15T16:19:52;44.33;;;26.83;;
25023;SDS011;13033;50.936;5.334;2023-02-15T16:22:23;49.47;;;26.90;;
25023;SDS011;13033;50.936;5.334;2023-02-15T16:27:42;46.10;;;27.33;;
25023;SDS011;13033;50.936;5.334;2023-02-15T16:30:22;44.25;;;26.58;;
25023;SDS011;13033;50.936;5.334;2023-02-15T16:32:49;48.15;;;26.55;;
25023;SDS011;13033;50.936;5.334;2023-02-15T16:35:19;47.80;;;26.77;;
25023;SDS011;13033;50.936;5.334;2023-02-15T16:37:46;45.05;;;26.00;;
25023;SDS011;13033;50.936;5.334;2023-02-15T16:42:54;48.25;;;26.55;;
25023;SDS011;13033;50.936;5.334;2023-02-15T16:45:25;51.33;;;27.85;;
25023;SDS011;13033;50.936;5.334;2023-02-15T16:47:53;47.78;;;27.60;;
25023;SDS011;13033;50.936;5.334;2023-02-15T16:50:30;51.78;;;28.58;;
25023;SDS011;13033;50.936;5.334;2023-02-15T16:52:59;46.35;;;27.88;;
25023;SDS011;13033;50.936;5.334;2023-02-15T16:55:27;49.40;;;27.92;;
25023;SDS011;13033;50.936;5.334;2023-02-15T16:57:57;49.38;;;27.88;;
25023;SDS011;13033;50.936;5.334;2023-02-15T17:00:26;53.30;;;28.05;;
25023;SDS011;13033;50.936;5.334;2023-02-15T17:03:06;51.72;;;28.13;;
25023;SDS011;13033;50.936;5.334;2023-02-15T17:08:28;52.75;;;29.02;;
25023;SDS011;13033;50.936;5.334;2023-02-15T17:13:38;51.33;;;28.27;;
25023;SDS011;13033;50.936;5.334;2023-02-15T17:16:28;48.40;;;27.27;;
25023;SDS011;13033;50.936;5.334;2023-02-15T17:19:15;55.20;;;28.23;;
25023;SDS011;13033;50.936;5.334;2023-02-15T17:21:50;53.20;;;29.35;;
25023;SDS011;13033;50.936;5.334;2023-02-15T17:24:43;57.92;;;28.45;;
25023;SDS011;13033;50.936;5.334;2023-02-15T17:27:31;56.03;;;29.48;;
25023;SDS011;13033;50.936;5.334;2023-02-15T17:30:01;52.97;;;29.58;;
25023;SDS011;13033;50.936;5.334;2023-02-15T17:32:30;53.65;;;29.50;;
25023;SDS011;13033;50.936;5.334;2023-02-15T17:35:08;54.55;;;29.25;;
25023;SDS011;13033;50.936;5.334;2023-02-15T17:37:47;56.58;;;29.30;;
25023;SDS011;13033;50.936;5.334;2023-02-15T17:40:25;53.55;;;29.92;;
25023;SDS011;13033;50.936;5.334;2023-02-15T17:42:53;49.03;;;28.75;;
25023;SDS011;13033;50.936;5.334;2023-02-15T17:45:19;52.08;;;28.65;;
25023;SDS011;13033;50.936;5.334;2023-02-15T17:47:47;52.38;;;30.13;;
25023;SDS011;13033;50.936;5.334;2023-02-15T17:50:24;54.25;;;29.42;;
25023;SDS011;13033;50.936;5.334;2023-02-15T17:52:51;51.80;;;29.77;;